sensor_id;sensor_type;location;lat;lon;timestamp;P1;durP1;ratioP1;P2;durP2;ratioP2
33696;SDS011;20031;43.416;23.232;2023-04-03T00:02:14;1.85;;;1.30;;
33696;SDS011;20031;43.416;23.232;2023-04-03T00:04:39;2.88;;;1.40;;
33696;SDS011;20031;43.416;23.232;2023-04-03T00:07:05;2.58;;;1.30;;
33696;SDS011;20031;43.416;23.232;2023-04-03T00:09:31;1.88;;;1.30;;
33696;SDS011;20031;43.416;23.232;2023-04-03T00:11:56;2.10;;;1.20;;
33696;SDS011;20031;43.416;23.232;2023-04-03T00:14:22;2.40;;;1.30;;
33696;SDS011;20031;43.416;23.232;2023-04-03T00:16:47;3.80;;;1.25;;
33696;SDS011;20031;43.416;23.232;2023-04-03T00:19:13;2.75;;;1.20;;
33696;SDS011;20031;43.416;23.232;2023-04-03T00:21:38;2.60;;;1.42;;
33696;SDS011;20031;43.416;23.232;2023-04-03T00:24:04;3.28;;;2.00;;
33696;SDS011;20031;43.416;23.232;2023-04-03T00:26:29;2.35;;;1.42;;
33696;SDS011;20031;43.416;23.232;2023-04-03T00:28:55;4.80;;;1.58;;
33696;SDS011;20031;43.416;23.232;2023-04-03T00:31:21;3.40;;;1.35;;
33696;SDS011;20031;43.416;23.232;2023-04-03T00:33:46;3.00;;;1.50;;
33696;SDS011;20031;43.416;23.232;2023-04-03T00:36:12;4.20;;;1.60;;
33696;SDS011;20031;43.416;23.232;2023-04-03T00:38:38;1.45;;;1.08;;
33696;SDS011;20031;43.416;23.232;2023-04-03T00:41:03;1.60;;;1.10;;
33696;SDS011;20031;43.416;23.232;2023-04-03T00:43:29;3.53;;;1.05;;
33696;SDS011;20031;43.416;23.232;2023-04-03T00:45:56;4.28;;;1.20;;
33696;SDS011;20031;43.416;23.232;2023-04-03T00:48:26;2.88;;;1.20;;
33696;SDS011;20031;43.416;23.232;2023-04-03T00:50:55;2.00;;;1.20;;
33696;SDS011;20031;43.416;23.232;2023-04-03T00:53:26;2.72;;;1.20;;
33696;SDS011;20031;43.416;23.232;2023-04-03T00:55:56;1.83;;;1.30;;
33696;SDS011;20031;43.416;23.232;2023-04-03T00:58:23;2.40;;;1.20;;
33696;SDS011;20031;43.416;23.232;2023-04-03T01:00:54;2.55;;;1.10;;
33696;SDS011;20031;43.416;23.232;2023-04-03T01:03:23;4.22;;;1.23;;
33696;SDS011;20031;43.416;23.232;2023-04-03T01:05:49;7.10;;;1.40;;
33696;SDS011;20031;43.416;23.232;2023-04-03T01:08:15;1.85;;;1.10;;
33696;SDS011;20031;43.416;23.232;2023-04-03T01:10:41;2.00;;;1.30;;
33696;SDS011;20031;43.416;23.232;2023-04-03T01:13:21;1.02;;;0.77;;
33696;SDS011;20031;43.416;23.232;2023-04-03T01:15:51;1.30;;;1.10;;
33696;SDS011;20031;43.416;23.232;2023-04-03T01:18:17;2.33;;;1.10;;
33696;SDS011;20031;43.416;23.232;2023-04-03T01:25:47;3.13;;;1.40;;
33696;SDS011;20031;43.416;23.232;2023-04-03T01:28:16;1.52;;;1.20;;
33696;SDS011;20031;43.416;23.232;2023-04-03T01:30:45;2.10;;;1.33;;
33696;SDS011;20031;43.416;23.232;2023-04-03T01:33:32;7.97;;;1.38;;
33696;SDS011;20031;43.416;23.232;2023-04-03T01:35:57;3.70;;;1.40;;
33696;SDS011;20031;43.416;23.232;2023-04-03T01:38:23;2.42;;;1.35;;
33696;SDS011;20031;43.416;23.232;2023-04-03T01:40:49;2.20;;;1.42;;
33696;SDS011;20031;43.416;23.232;2023-04-03T01:43:14;2.38;;;1.30;;
33696;SDS011;20031;43.416;23.232;2023-04-03T01:45:39;2.20;;;1.30;;
33696;SDS011;20031;43.416;23.232;2023-04-03T01:48:05;2.63;;;1.48;;
33696;SDS011;20031;43.416;23.232;2023-04-03T01:50:30;4.97;;;1.38;;
33696;SDS011;20031;43.416;23.232;2023-04-03T01:52:57;4.32;;;1.13;;
33696;SDS011;20031;43.416;23.232;2023-04-03T01:55:22;3.03;;;1.10;;
33696;SDS011;20031;43.416;23.232;2023-04-03T01:57:47;2.35;;;1.30;;
33696;SDS011;20031;43.416;23.232;2023-04-03T02:00:13;1.92;;;1.10;;
33696;SDS011;20031;43.416;23.232;2023-04-03T02:02:39;3.33;;;1.10;;
33696;SDS011;20031;43.416;23.232;2023-04-03T02:05:05;4.60;;;1.50;;
33696;SDS011;20031;43.416;23.232;2023-04-03T02:07:30;2.13;;;1.10;;
33696;SDS011;20031;43.416;23.232;2023-04-03T02:09:56;1.67;;;1.08;;
33696;SDS011;20031;43.416;23.232;2023-04-03T02:12:21;4.53;;;1.25;;
33696;SDS011;20031;43.416;23.232;2023-04-03T02:14:47;1.58;;;1.13;;
33696;SDS011;20031;43.416;23.232;2023-04-03T02:17:12;2.38;;;1.25;;
33696;SDS011;20031;43.416;23.232;2023-04-03T02:19:38;3.95;;;1.33;;
33696;SDS011;20031;43.416;23.232;2023-04-03T02:22:03;6.97;;;1.40;;
33696;SDS011;20031;43.416;23.232;2023-04-03T02:24:30;3.33;;;1.48;;
33696;SDS011;20031;43.416;23.232;2023-04-03T02:26:55;2.25;;;1.50;;
33696;SDS011;20031;43.416;23.232;2023-04-03T02:29:21;3.15;;;1.40;;
33696;SDS011;20031;43.416;23.232;2023-04-03T02:31:47;4.18;;;1.30;;
33696;SDS011;20031;43.416;23.232;2023-04-03T02:34:12;4.10;;;1.20;;
33696;SDS011;20031;43.416;23.232;2023-04-03T02:36:38;1.85;;;1.10;;
33696;SDS011;20031;43.416;23.232;2023-04-03T02:39:03;2.20;;;1.30;;
33696;SDS011;20031;43.416;23.232;2023-04-03T02:41:29;1.90;;;1.35;;
33696;SDS011;20031;43.416;23.232;2023-04-03T02:44:00;5.13;;;1.30;;
33696;SDS011;20031;43.416;23.232;2023-04-03T02:46:27;5.13;;;1.30;;
33696;SDS011;20031;43.416;23.232;2023-04-03T02:48:52;2.17;;;1.27;;
33696;SDS011;20031;43.416;23.232;2023-04-03T02:51:18;1.50;;;1.10;;
33696;SDS011;20031;43.416;23.232;2023-04-03T02:53:43;2.65;;;1.08;;
33696;SDS011;20031;43.416;23.232;2023-04-03T02:56:09;3.80;;;1.13;;
33696;SDS011;20031;43.416;23.232;2023-04-03T02:58:34;5.18;;;1.30;;
33696;SDS011;20031;43.416;23.232;2023-04-03T03:01:00;2.40;;;1.30;;
33696;SDS011;20031;43.416;23.232;2023-04-03T03:03:26;4.88;;;1.77;;
33696;SDS011;20031;43.416;23.232;2023-04-03T03:06:08;4.93;;;1.52;;
33696;SDS011;20031;43.416;23.232;2023-04-03T03:08:35;5.00;;;1.67;;
33696;SDS011;20031;43.416;23.232;2023-04-03T03:11:02;2.40;;;1.33;;
33696;SDS011;20031;43.416;23.232;2023-04-03T03:13:28;2.67;;;1.58;;
33696;SDS011;20031;43.416;23.232;2023-04-03T03:15:54;2.15;;;1.23;;
33696;SDS011;20031;43.416;23.232;2023-04-03T03:18:19;1.90;;;1.20;;
33696;SDS011;20031;43.416;23.232;2023-04-03T03:20:45;2.58;;;1.42;;
33696;SDS011;20031;43.416;23.232;2023-04-03T03:23:10;3.55;;;1.40;;
33696;SDS011;20031;43.416;23.232;2023-04-03T03:25:39;2.65;;;1.35;;
33696;SDS011;20031;43.416;23.232;2023-04-03T03:28:05;4.00;;;1.30;;
33696;SDS011;20031;43.416;23.232;2023-04-03T03:30:31;3.42;;;1.38;;
33696;SDS011;20031;43.416;23.232;2023-04-03T03:32:57;1.83;;;1.20;;
33696;SDS011;20031;43.416;23.232;2023-04-03T03:35:22;4.45;;;2.38;;
33696;SDS011;20031;43.416;23.232;2023-04-03T03:37:48;3.30;;;2.00;;
33696;SDS011;20031;43.416;23.232;2023-04-03T03:40:13;6.28;;;1.98;;
33696;SDS011;20031;43.416;23.232;2023-04-03T03:42:39;3.58;;;1.60;;
33696;SDS011;20031;43.416;23.232;2023-04-03T03:45:05;2.80;;;1.40;;
33696;SDS011;20031;43.416;23.232;2023-04-03T03:47:31;3.55;;;1.90;;
33696;SDS011;20031;43.416;23.232;2023-04-03T03:49:57;3.95;;;1.80;;
33696;SDS011;20031;43.416;23.232;2023-04-03T03:52:22;5.68;;;2.10;;
33696;SDS011;20031;43.416;23.232;2023-04-03T03:54:48;4.88;;;2.08;;
33696;SDS011;20031;43.416;23.232;2023-04-03T03:57:13;4.80;;;2.70;;
33696;SDS011;20031;43.416;23.232;2023-04-03T03:59:39;2.95;;;1.85;;
33696;SDS011;20031;43.416;23.232;2023-04-03T04:02:05;7.32;;;1.92;;
33696;SDS011;20031;43.416;23.232;2023-04-03T04:04:31;7.15;;;2.80;;
33696;SDS011;20031;43.416;23.232;2023-04-03T04:06:56;11.80;;;4.72;;
33696;SDS011;20031;43.416;23.232;2023-04-03T04:09:22;18.23;;;8.18;;
33696;SDS011;20031;43.416;23.232;2023-04-03T04:11:47;8.43;;;3.88;;
33696;SDS011;20031;43.416;23.232;2023-04-03T04:14:13;14.80;;;2.72;;
33696;SDS011;20031;43.416;23.232;2023-04-03T04:16:38;7.40;;;2.58;;
33696;SDS011;20031;43.416;23.232;2023-04-03T04:19:04;6.07;;;2.20;;
33696;SDS011;20031;43.416;23.232;2023-04-03T04:21:29;4.25;;;1.90;;
33696;SDS011;20031;43.416;23.232;2023-04-03T04:23:55;9.60;;;2.10;;
33696;SDS011;20031;43.416;23.232;2023-04-03T04:26:20;8.65;;;2.10;;
33696;SDS011;20031;43.416;23.232;2023-04-03T04:28:46;7.03;;;2.10;;
33696;SDS011;20031;43.416;23.232;2023-04-03T04:31:11;14.75;;;3.20;;
33696;SDS011;20031;43.416;23.232;2023-04-03T04:33:37;9.25;;;4.82;;
33696;SDS011;20031;43.416;23.232;2023-04-03T04:36:02;3.13;;;2.17;;
33696;SDS011;20031;43.416;23.232;2023-04-03T04:38:28;5.70;;;2.05;;
33696;SDS011;20031;43.416;23.232;2023-04-03T04:40:53;5.55;;;1.92;;
33696;SDS011;20031;43.416;23.232;2023-04-03T04:43:19;5.32;;;1.85;;
33696;SDS011;20031;43.416;23.232;2023-04-03T04:45:44;9.05;;;2.28;;
33696;SDS011;20031;43.416;23.232;2023-04-03T04:48:10;7.85;;;2.17;;
33696;SDS011;20031;43.416;23.232;2023-04-03T04:50:35;10.65;;;2.13;;
33696;SDS011;20031;43.416;23.232;2023-04-03T04:53:00;6.07;;;2.10;;
33696;SDS011;20031;43.416;23.232;2023-04-03T04:55:26;9.07;;;2.28;;
33696;SDS011;20031;43.416;23.232;2023-04-03T04:57:51;11.63;;;2.35;;
33696;SDS011;20031;43.416;23.232;2023-04-03T05:00:17;10.73;;;2.90;;
33696;SDS011;20031;43.416;23.232;2023-04-03T05:02:43;10.25;;;2.80;;
33696;SDS011;20031;43.416;23.232;2023-04-03T05:05:08;10.95;;;3.10;;
33696;SDS011;20031;43.416;23.232;2023-04-03T05:07:34;9.57;;;2.50;;
33696;SDS011;20031;43.416;23.232;2023-04-03T05:10:00;9.05;;;2.45;;
33696;SDS011;20031;43.416;23.232;2023-04-03T05:12:27;12.57;;;2.58;;
33696;SDS011;20031;43.416;23.232;2023-04-03T05:14:53;6.47;;;2.40;;
33696;SDS011;20031;43.416;23.232;2023-04-03T05:17:18;9.07;;;2.53;;
33696;SDS011;20031;43.416;23.232;2023-04-03T05:19:44;16.05;;;8.05;;
33696;SDS011;20031;43.416;23.232;2023-04-03T05:22:09;9.55;;;4.18;;
33696;SDS011;20031;43.416;23.232;2023-04-03T05:24:35;9.13;;;3.40;;
33696;SDS011;20031;43.416;23.232;2023-04-03T05:27:00;11.98;;;3.35;;
33696;SDS011;20031;43.416;23.232;2023-04-03T05:29:26;16.83;;;3.85;;
33696;SDS011;20031;43.416;23.232;2023-04-03T05:31:51;11.45;;;3.55;;
33696;SDS011;20031;43.416;23.232;2023-04-03T05:34:17;24.33;;;7.15;;
33696;SDS011;20031;43.416;23.232;2023-04-03T05:36:42;15.80;;;6.50;;
33696;SDS011;20031;43.416;23.232;2023-04-03T05:39:08;14.55;;;6.22;;
33696;SDS011;20031;43.416;23.232;2023-04-03T05:41:34;10.75;;;3.78;;
33696;SDS011;20031;43.416;23.232;2023-04-03T05:43:59;19.83;;;4.82;;
33696;SDS011;20031;43.416;23.232;2023-04-03T05:46:25;16.95;;;3.72;;
33696;SDS011;20031;43.416;23.232;2023-04-03T05:48:51;15.48;;;3.60;;
33696;SDS011;20031;43.416;23.232;2023-04-03T05:51:28;19.13;;;4.28;;
33696;SDS011;20031;43.416;23.232;2023-04-03T05:54:16;19.15;;;4.07;;
33696;SDS011;20031;43.416;23.232;2023-04-03T05:56:44;8.70;;;3.47;;
33696;SDS011;20031;43.416;23.232;2023-04-03T05:59:10;8.93;;;3.60;;
33696;SDS011;20031;43.416;23.232;2023-04-03T06:01:36;8.35;;;2.90;;
33696;SDS011;20031;43.416;23.232;2023-04-03T06:04:02;9.80;;;2.83;;
33696;SDS011;20031;43.416;23.232;2023-04-03T06:06:49;5.93;;;2.88;;
33696;SDS011;20031;43.416;23.232;2023-04-03T06:09:21;13.98;;;2.58;;
33696;SDS011;20031;43.416;23.232;2023-04-03T06:11:49;10.55;;;2.50;;
33696;SDS011;20031;43.416;23.232;2023-04-03T06:14:15;6.10;;;2.80;;
33696;SDS011;20031;43.416;23.232;2023-04-03T06:16:40;11.73;;;2.78;;
33696;SDS011;20031;43.416;23.232;2023-04-03T06:19:07;7.00;;;2.60;;
33696;SDS011;20031;43.416;23.232;2023-04-03T06:21:34;10.18;;;2.60;;
33696;SDS011;20031;43.416;23.232;2023-04-03T06:24:00;15.73;;;3.60;;
33696;SDS011;20031;43.416;23.232;2023-04-03T06:26:27;17.52;;;6.85;;
33696;SDS011;20031;43.416;23.232;2023-04-03T06:28:53;28.85;;;8.02;;
33696;SDS011;20031;43.416;23.232;2023-04-03T06:31:21;35.70;;;7.78;;
33696;SDS011;20031;43.416;23.232;2023-04-03T06:33:53;18.83;;;5.38;;
33696;SDS011;20031;43.416;23.232;2023-04-03T06:36:24;11.38;;;3.17;;
33696;SDS011;20031;43.416;23.232;2023-04-03T06:38:58;7.75;;;3.00;;
33696;SDS011;20031;43.416;23.232;2023-04-03T06:41:29;4.60;;;2.42;;
33696;SDS011;20031;43.416;23.232;2023-04-03T06:43:55;8.35;;;2.80;;
33696;SDS011;20031;43.416;23.232;2023-04-03T06:46:22;10.00;;;2.90;;
33696;SDS011;20031;43.416;23.232;2023-04-03T06:48:49;14.10;;;3.90;;
33696;SDS011;20031;43.416;23.232;2023-04-03T06:51:19;10.88;;;4.50;;
33696;SDS011;20031;43.416;23.232;2023-04-03T06:53:50;12.05;;;3.97;;
33696;SDS011;20031;43.416;23.232;2023-04-03T06:56:17;15.65;;;4.60;;
33696;SDS011;20031;43.416;23.232;2023-04-03T06:58:43;11.77;;;3.95;;
33696;SDS011;20031;43.416;23.232;2023-04-03T07:01:10;14.68;;;4.30;;
33696;SDS011;20031;43.416;23.232;2023-04-03T07:03:37;8.52;;;3.92;;
33696;SDS011;20031;43.416;23.232;2023-04-03T07:06:04;21.38;;;3.38;;
33696;SDS011;20031;43.416;23.232;2023-04-03T07:08:32;6.25;;;3.20;;
33696;SDS011;20031;43.416;23.232;2023-04-03T07:10:58;8.80;;;2.80;;
33696;SDS011;20031;43.416;23.232;2023-04-03T07:13:23;13.13;;;2.72;;
33696;SDS011;20031;43.416;23.232;2023-04-03T07:15:49;11.10;;;3.50;;
33696;SDS011;20031;43.416;23.232;2023-04-03T07:18:15;22.48;;;6.72;;
33696;SDS011;20031;43.416;23.232;2023-04-03T07:20:41;46.47;;;15.30;;
33696;SDS011;20031;43.416;23.232;2023-04-03T07:23:07;25.50;;;5.07;;
33696;SDS011;20031;43.416;23.232;2023-04-03T07:25:33;29.85;;;5.40;;
33696;SDS011;20031;43.416;23.232;2023-04-03T07:27:58;33.30;;;10.02;;
33696;SDS011;20031;43.416;23.232;2023-04-03T07:30:24;18.45;;;5.43;;
33696;SDS011;20031;43.416;23.232;2023-04-03T07:32:50;43.70;;;5.75;;
33696;SDS011;20031;43.416;23.232;2023-04-03T07:35:16;8.52;;;2.13;;
33696;SDS011;20031;43.416;23.232;2023-04-03T07:37:42;2.53;;;1.30;;
33696;SDS011;20031;43.416;23.232;2023-04-03T07:40:08;4.00;;;1.13;;
33696;SDS011;20031;43.416;23.232;2023-04-03T07:42:34;3.50;;;1.20;;
33696;SDS011;20031;43.416;23.232;2023-04-03T07:45:00;4.10;;;1.48;;
33696;SDS011;20031;43.416;23.232;2023-04-03T07:47:26;3.25;;;1.20;;
33696;SDS011;20031;43.416;23.232;2023-04-03T07:49:52;4.38;;;1.15;;
33696;SDS011;20031;43.416;23.232;2023-04-03T07:52:17;3.00;;;1.00;;
33696;SDS011;20031;43.416;23.232;2023-04-03T07:54:43;7.07;;;1.60;;
33696;SDS011;20031;43.416;23.232;2023-04-03T07:57:08;2.90;;;1.27;;
33696;SDS011;20031;43.416;23.232;2023-04-03T07:59:34;2.75;;;1.20;;
33696;SDS011;20031;43.416;23.232;2023-04-03T08:01:59;10.15;;;1.40;;
33696;SDS011;20031;43.416;23.232;2023-04-03T08:04:25;3.70;;;1.38;;
33696;SDS011;20031;43.416;23.232;2023-04-03T08:06:51;2.40;;;1.10;;
33696;SDS011;20031;43.416;23.232;2023-04-03T08:09:17;1.23;;;0.95;;
33696;SDS011;20031;43.416;23.232;2023-04-03T08:11:44;4.95;;;1.25;;
33696;SDS011;20031;43.416;23.232;2023-04-03T08:14:10;4.35;;;1.05;;
33696;SDS011;20031;43.416;23.232;2023-04-03T08:16:41;4.95;;;0.95;;
33696;SDS011;20031;43.416;23.232;2023-04-03T08:19:07;3.13;;;1.00;;
33696;SDS011;20031;43.416;23.232;2023-04-03T08:21:33;3.90;;;0.90;;
33696;SDS011;20031;43.416;23.232;2023-04-03T08:23:58;3.00;;;1.00;;
33696;SDS011;20031;43.416;23.232;2023-04-03T08:26:24;6.15;;;1.25;;
33696;SDS011;20031;43.416;23.232;2023-04-03T08:28:52;7.80;;;1.63;;
33696;SDS011;20031;43.416;23.232;2023-04-03T08:31:26;3.17;;;1.30;;
33696;SDS011;20031;43.416;23.232;2023-04-03T08:33:53;5.85;;;1.70;;
33696;SDS011;20031;43.416;23.232;2023-04-03T08:36:23;1.83;;;1.30;;
33696;SDS011;20031;43.416;23.232;2023-04-03T08:38:52;2.05;;;1.30;;
33696;SDS011;20031;43.416;23.232;2023-04-03T08:49:49;2.55;;;1.08;;
33696;SDS011;20031;43.416;23.232;2023-04-03T08:52:19;2.17;;;1.20;;
33696;SDS011;20031;43.416;23.232;2023-04-03T08:54:54;2.83;;;1.25;;
33696;SDS011;20031;43.416;23.232;2023-04-03T08:57:36;4.45;;;1.40;;
33696;SDS011;20031;43.416;23.232;2023-04-03T09:00:06;3.35;;;1.40;;
33696;SDS011;20031;43.416;23.232;2023-04-03T09:02:47;3.90;;;1.27;;
33696;SDS011;20031;43.416;23.232;2023-04-03T09:05:19;3.15;;;1.38;;
33696;SDS011;20031;43.416;23.232;2023-04-03T09:10:48;3.58;;;1.35;;
33696;SDS011;20031;43.416;23.232;2023-04-03T09:15:45;2.25;;;1.33;;
33696;SDS011;20031;43.416;23.232;2023-04-03T09:18:21;3.85;;;1.30;;
33696;SDS011;20031;43.416;23.232;2023-04-03T09:23:42;2.72;;;1.42;;
33696;SDS011;20031;43.416;23.232;2023-04-03T09:26:15;4.57;;;1.58;;
33696;SDS011;20031;43.416;23.232;2023-04-03T09:28:51;2.25;;;1.20;;
33696;SDS011;20031;43.416;23.232;2023-04-03T09:31:22;3.17;;;1.50;;
33696;SDS011;20031;43.416;23.232;2023-04-03T09:33:59;4.15;;;1.98;;
33696;SDS011;20031;43.416;23.232;2023-04-03T09:39:05;1.77;;;1.10;;
33696;SDS011;20031;43.416;23.232;2023-04-03T09:41:35;2.00;;;1.40;;
33696;SDS011;20031;43.416;23.232;2023-04-03T09:44:00;2.92;;;1.40;;
33696;SDS011;20031;43.416;23.232;2023-04-03T09:46:33;2.58;;;1.60;;
33696;SDS011;20031;43.416;23.232;2023-04-03T09:49:03;2.55;;;1.45;;
33696;SDS011;20031;43.416;23.232;2023-04-03T09:51:31;3.65;;;1.90;;
33696;SDS011;20031;43.416;23.232;2023-04-03T09:53:57;2.30;;;1.38;;
33696;SDS011;20031;43.416;23.232;2023-04-03T09:56:24;6.05;;;1.70;;
33696;SDS011;20031;43.416;23.232;2023-04-03T10:04:06;2.30;;;1.30;;
33696;SDS011;20031;43.416;23.232;2023-04-03T10:06:46;4.43;;;1.50;;
33696;SDS011;20031;43.416;23.232;2023-04-03T10:09:21;3.60;;;1.67;;
33696;SDS011;20031;43.416;23.232;2023-04-03T10:12:02;5.22;;;1.52;;
33696;SDS011;20031;43.416;23.232;2023-04-03T10:14:32;3.28;;;1.30;;
33696;SDS011;20031;43.416;23.232;2023-04-03T10:24:52;2.35;;;1.40;;
33696;SDS011;20031;43.416;23.232;2023-04-03T10:35:58;5.80;;;1.40;;
33696;SDS011;20031;43.416;23.232;2023-04-03T10:44:09;4.03;;;1.27;;
33696;SDS011;20031;43.416;23.232;2023-04-03T10:46:46;2.92;;;1.50;;
33696;SDS011;20031;43.416;23.232;2023-04-03T10:49:19;4.72;;;1.30;;
33696;SDS011;20031;43.416;23.232;2023-04-03T10:52:10;8.25;;;1.83;;
33696;SDS011;20031;43.416;23.232;2023-04-03T10:54:41;3.05;;;1.33;;
33696;SDS011;20031;43.416;23.232;2023-04-03T10:57:30;3.05;;;1.40;;
33696;SDS011;20031;43.416;23.232;2023-04-03T11:02:25;7.47;;;1.80;;
33696;SDS011;20031;43.416;23.232;2023-04-03T11:04:54;4.43;;;1.50;;
33696;SDS011;20031;43.416;23.232;2023-04-03T11:07:36;3.28;;;1.45;;
33696;SDS011;20031;43.416;23.232;2023-04-03T11:10:10;4.22;;;1.58;;
33696;SDS011;20031;43.416;23.232;2023-04-03T11:12:43;3.50;;;1.60;;
33696;SDS011;20031;43.416;23.232;2023-04-03T11:15:14;11.68;;;3.22;;
33696;SDS011;20031;43.416;23.232;2023-04-03T11:17:46;5.25;;;2.17;;
33696;SDS011;20031;43.416;23.232;2023-04-03T11:20:28;4.25;;;1.98;;
33696;SDS011;20031;43.416;23.232;2023-04-03T11:23:03;3.05;;;1.80;;
33696;SDS011;20031;43.416;23.232;2023-04-03T11:25:32;8.35;;;2.10;;
33696;SDS011;20031;43.416;23.232;2023-04-03T11:28:03;2.95;;;1.92;;
33696;SDS011;20031;43.416;23.232;2023-04-03T11:30:32;2.63;;;2.00;;
33696;SDS011;20031;43.416;23.232;2023-04-03T11:33:51;3.60;;;1.70;;
33696;SDS011;20031;43.416;23.232;2023-04-03T11:35:56;5.90;;;1.88;;
33696;SDS011;20031;43.416;23.232;2023-04-03T11:38:28;4.70;;;1.65;;
33696;SDS011;20031;43.416;23.232;2023-04-03T11:41:01;3.35;;;1.95;;
33696;SDS011;20031;43.416;23.232;2023-04-03T11:43:30;12.25;;;2.03;;
33696;SDS011;20031;43.416;23.232;2023-04-03T11:45:58;6.25;;;1.73;;
33696;SDS011;20031;43.416;23.232;2023-04-03T11:53:39;5.88;;;1.80;;
33696;SDS011;20031;43.416;23.232;2023-04-03T12:04:18;5.75;;;2.10;;
33696;SDS011;20031;43.416;23.232;2023-04-03T12:09:56;6.72;;;2.20;;
33696;SDS011;20031;43.416;23.232;2023-04-03T12:15:12;6.35;;;1.60;;
33696;SDS011;20031;43.416;23.232;2023-04-03T12:17:45;3.45;;;1.63;;
33696;SDS011;20031;43.416;23.232;2023-04-03T12:23:30;16.15;;;2.20;;
33696;SDS011;20031;43.416;23.232;2023-04-03T12:26:06;4.18;;;2.00;;
33696;SDS011;20031;43.416;23.232;2023-04-03T12:28:47;2.65;;;1.50;;
33696;SDS011;20031;43.416;23.232;2023-04-03T12:31:15;15.93;;;3.38;;
33696;SDS011;20031;43.416;23.232;2023-04-03T12:33:57;6.30;;;1.70;;
33696;SDS011;20031;43.416;23.232;2023-04-03T12:36:39;2.83;;;1.60;;
33696;SDS011;20031;43.416;23.232;2023-04-03T12:39:17;5.30;;;1.85;;
33696;SDS011;20031;43.416;23.232;2023-04-03T12:41:56;4.70;;;2.00;;
33696;SDS011;20031;43.416;23.232;2023-04-03T12:47:08;9.38;;;2.20;;
33696;SDS011;20031;43.416;23.232;2023-04-03T12:49:47;10.95;;;2.55;;
33696;SDS011;20031;43.416;23.232;2023-04-03T12:52:34;9.05;;;1.98;;
33696;SDS011;20031;43.416;23.232;2023-04-03T12:55:07;2.90;;;1.85;;
33696;SDS011;20031;43.416;23.232;2023-04-03T12:57:42;4.07;;;1.90;;
33696;SDS011;20031;43.416;23.232;2023-04-03T13:02:46;10.75;;;3.88;;
33696;SDS011;20031;43.416;23.232;2023-04-03T13:05:16;22.55;;;5.50;;
33696;SDS011;20031;43.416;23.232;2023-04-03T13:07:43;31.92;;;6.68;;
33696;SDS011;20031;43.416;23.232;2023-04-03T13:10:15;34.22;;;7.10;;
33696;SDS011;20031;43.416;23.232;2023-04-03T13:12:48;24.17;;;4.80;;
33696;SDS011;20031;43.416;23.232;2023-04-03T13:15:23;5.95;;;2.50;;
33696;SDS011;20031;43.416;23.232;2023-04-03T13:17:54;4.43;;;2.20;;
33696;SDS011;20031;43.416;23.232;2023-04-03T13:20:27;13.43;;;2.35;;
33696;SDS011;20031;43.416;23.232;2023-04-03T13:23:05;16.10;;;2.13;;
33696;SDS011;20031;43.416;23.232;2023-04-03T13:25:35;7.93;;;2.40;;
33696;SDS011;20031;43.416;23.232;2023-04-03T13:28:03;14.27;;;3.22;;
33696;SDS011;20031;43.416;23.232;2023-04-03T13:30:35;8.18;;;2.40;;
33696;SDS011;20031;43.416;23.232;2023-04-03T13:33:17;22.08;;;4.30;;
33696;SDS011;20031;43.416;23.232;2023-04-03T13:35:45;15.40;;;2.80;;
33696;SDS011;20031;43.416;23.232;2023-04-03T13:40:48;10.65;;;3.22;;
33696;SDS011;20031;43.416;23.232;2023-04-03T13:43:20;24.05;;;5.25;;
33696;SDS011;20031;43.416;23.232;2023-04-03T13:48:40;24.70;;;4.18;;
33696;SDS011;20031;43.416;23.232;2023-04-03T13:53:41;3.08;;;1.80;;
33696;SDS011;20031;43.416;23.232;2023-04-03T13:56:15;9.43;;;2.20;;
33696;SDS011;20031;43.416;23.232;2023-04-03T14:04:19;11.77;;;3.70;;
33696;SDS011;20031;43.416;23.232;2023-04-03T14:06:50;19.10;;;4.88;;
33696;SDS011;20031;43.416;23.232;2023-04-03T14:09:17;25.48;;;3.85;;
33696;SDS011;20031;43.416;23.232;2023-04-03T14:11:44;10.30;;;3.80;;
33696;SDS011;20031;43.416;23.232;2023-04-03T14:14:13;17.95;;;5.45;;
33696;SDS011;20031;43.416;23.232;2023-04-03T14:16:42;11.75;;;3.33;;
33696;SDS011;20031;43.416;23.232;2023-04-03T14:19:26;7.88;;;3.53;;
33696;SDS011;20031;43.416;23.232;2023-04-03T14:21:54;29.92;;;7.00;;
33696;SDS011;20031;43.416;23.232;2023-04-03T14:24:20;27.45;;;6.78;;
33696;SDS011;20031;43.416;23.232;2023-04-03T14:26:47;17.42;;;5.10;;
33696;SDS011;20031;43.416;23.232;2023-04-03T14:29:14;19.42;;;4.65;;
33696;SDS011;20031;43.416;23.232;2023-04-03T14:31:41;4.28;;;2.15;;
33696;SDS011;20031;43.416;23.232;2023-04-03T14:34:09;4.95;;;2.15;;
33696;SDS011;20031;43.416;23.232;2023-04-03T14:36:36;2.45;;;1.77;;
33696;SDS011;20031;43.416;23.232;2023-04-03T14:39:02;4.85;;;2.33;;
33696;SDS011;20031;43.416;23.232;2023-04-03T14:41:29;4.20;;;2.20;;
33696;SDS011;20031;43.416;23.232;2023-04-03T14:43:54;3.17;;;1.77;;
33696;SDS011;20031;43.416;23.232;2023-04-03T14:46:22;5.55;;;2.40;;
33696;SDS011;20031;43.416;23.232;2023-04-03T14:48:54;4.90;;;2.10;;
33696;SDS011;20031;43.416;23.232;2023-04-03T14:51:21;7.97;;;2.40;;
33696;SDS011;20031;43.416;23.232;2023-04-03T14:53:47;5.50;;;2.10;;
33696;SDS011;20031;43.416;23.232;2023-04-03T14:56:16;9.10;;;2.92;;
33696;SDS011;20031;43.416;23.232;2023-04-03T14:58:47;6.72;;;2.50;;
33696;SDS011;20031;43.416;23.232;2023-04-03T15:01:15;4.38;;;2.20;;
33696;SDS011;20031;43.416;23.232;2023-04-03T15:03:42;3.88;;;2.03;;
33696;SDS011;20031;43.416;23.232;2023-04-03T15:06:09;5.75;;;2.30;;
33696;SDS011;20031;43.416;23.232;2023-04-03T15:08:36;3.70;;;2.00;;
33696;SDS011;20031;43.416;23.232;2023-04-03T15:11:02;11.35;;;3.00;;
33696;SDS011;20031;43.416;23.232;2023-04-03T15:13:28;4.10;;;2.33;;
33696;SDS011;20031;43.416;23.232;2023-04-03T15:15:53;3.03;;;1.90;;
33696;SDS011;20031;43.416;23.232;2023-04-03T15:18:20;5.40;;;2.20;;
33696;SDS011;20031;43.416;23.232;2023-04-03T15:20:48;4.03;;;2.38;;
33696;SDS011;20031;43.416;23.232;2023-04-03T15:23:14;4.70;;;2.10;;
33696;SDS011;20031;43.416;23.232;2023-04-03T15:25:42;8.85;;;2.42;;
33696;SDS011;20031;43.416;23.232;2023-04-03T15:28:10;2.72;;;2.00;;
33696;SDS011;20031;43.416;23.232;2023-04-03T15:30:43;4.82;;;2.17;;
33696;SDS011;20031;43.416;23.232;2023-04-03T15:33:08;7.13;;;2.47;;
33696;SDS011;20031;43.416;23.232;2023-04-03T15:35:34;4.43;;;2.58;;
33696;SDS011;20031;43.416;23.232;2023-04-03T15:37:59;2.85;;;2.00;;
33696;SDS011;20031;43.416;23.232;2023-04-03T15:40:25;2.83;;;2.10;;
33696;SDS011;20031;43.416;23.232;2023-04-03T15:42:50;3.72;;;2.10;;
33696;SDS011;20031;43.416;23.232;2023-04-03T15:45:16;3.28;;;1.90;;
33696;SDS011;20031;43.416;23.232;2023-04-03T15:47:41;2.85;;;1.70;;
33696;SDS011;20031;43.416;23.232;2023-04-03T15:50:07;3.38;;;1.70;;
33696;SDS011;20031;43.416;23.232;2023-04-03T15:52:34;6.25;;;1.90;;
33696;SDS011;20031;43.416;23.232;2023-04-03T15:54:59;3.20;;;2.00;;
33696;SDS011;20031;43.416;23.232;2023-04-03T15:57:25;3.67;;;1.67;;
33696;SDS011;20031;43.416;23.232;2023-04-03T15:59:51;3.65;;;1.85;;
33696;SDS011;20031;43.416;23.232;2023-04-03T16:02:17;2.03;;;1.30;;
33696;SDS011;20031;43.416;23.232;2023-04-03T16:04:43;4.93;;;1.80;;
33696;SDS011;20031;43.416;23.232;2023-04-03T16:07:08;4.40;;;2.08;;
33696;SDS011;20031;43.416;23.232;2023-04-03T16:09:34;4.80;;;1.75;;
33696;SDS011;20031;43.416;23.232;2023-04-03T16:12:00;2.47;;;2.00;;
33696;SDS011;20031;43.416;23.232;2023-04-03T16:14:27;6.57;;;2.40;;